TimeEST,TemperatureF,Dew PointF,Humidity,Sea Level PressureIn,VisibilityMPH,Wind Direction,Wind SpeedMPH,Gust SpeedMPH,PrecipitationIn,Events,Conditions,WindDirDegrees,DateUTC
12:54 AM,33.1,19.9,59,29.74,10.0,SSW,6.9,-,N/A,,Scattered Clouds,210,2014-01-27 05:54:00
1:54 AM,32.0,21.0,64,29.73,10.0,WSW,4.6,-,N/A,,Overcast,240,2014-01-27 06:54:00
2:54 AM,28.0,19.9,72,29.72,10.0,Calm,Calm,-,N/A,,Overcast,0,2014-01-27 07:54:00
3:54 AM,28.0,19.9,72,29.70,10.0,Calm,Calm,-,N/A,,Overcast,0,2014-01-27 08:54:00
4:54 AM,33.1,23.0,66,29.68,10.0,South,3.5,-,N/A,,Overcast,170,2014-01-27 09:54:00
5:54 AM,36.0,24.1,62,29.65,10.0,South,6.9,-,N/A,,Overcast,190,2014-01-27 10:54:00
6:54 AM,37.9,25.0,60,29.65,10.0,SSW,9.2,-,N/A,,Overcast,210,2014-01-27 11:54:00
7:54 AM,39.9,26.1,58,29.65,10.0,SSW,10.4,-,N/A,,Overcast,200,2014-01-27 12:54:00
8:54 AM,39.0,27.0,62,29.67,10.0,SW,9.2,-,N/A,,Overcast,230,2014-01-27 13:54:00
9:54 AM,37.9,28.0,68,29.68,10.0,WSW,9.2,-,N/A,,Mostly Cloudy,240,2014-01-27 14:54:00
10:54 AM,42.1,28.9,60,29.70,10.0,West,15.0,-,N/A,,Mostly Cloudy,260,2014-01-27 15:54:00
11:54 AM,43.0,28.9,58,29.71,10.0,West,13.8,-,N/A,,Scattered Clouds,260,2014-01-27 16:54:00
12:09 PM,44.6,26.6,49,29.72,10.0,NW,26.5,29.9,N/A,,Scattered Clouds,310,2014-01-27 17:09:00
12:54 PM,42.1,24.1,49,29.76,10.0,WNW,16.1,27.6,N/A,,Scattered Clouds,290,2014-01-27 17:54:00
1:54 PM,39.9,19.9,45,29.79,10.0,WNW,18.4,32.2,N/A,,Mostly Cloudy,300,2014-01-27 18:54:00
2:54 PM,36.0,16.0,44,29.84,10.0,NW,26.5,32.2,N/A,,Mostly Cloudy,310,2014-01-27 19:54:00
3:54 PM,30.9,9.0,40,29.89,10.0,NW,19.6,26.5,N/A,,Mostly Cloudy,310,2014-01-27 20:54:00
4:54 PM,28.9,6.1,38,29.94,10.0,NNW,13.8,24.2,N/A,,Mostly Cloudy,330,2014-01-27 21:54:00
5:54 PM,28.0,1.9,33,29.98,10.0,NW,16.1,-,N/A,,Mostly Cloudy,310,2014-01-27 22:54:00
6:54 PM,28.0,1.0,31,30.02,10.0,NW,11.5,18.4,N/A,,Mostly Cloudy,310,2014-01-27 23:54:00
7:54 PM,27.0,-0.9,30,30.05,10.0,WNW,13.8,20.7,N/A,,Mostly Cloudy,300,2014-01-28 00:54:00
8:54 PM,25.0,-2.0,31,30.09,10.0,WNW,13.8,-,N/A,,Mostly Cloudy,290,2014-01-28 01:54:00
9:54 PM,24.1,-2.9,31,30.11,10.0,NNW,17.3,-,N/A,,Mostly Cloudy,330,2014-01-28 02:54:00
10:54 PM,23.0,-2.9,32,30.14,10.0,NW,13.8,-,N/A,,Mostly Cloudy,320,2014-01-28 03:54:00
11:54 PM,21.0,-2.0,36,30.16,10.0,NNW,16.1,-,N/A,,Overcast,330,2014-01-28 04:54:00